createdAt,value
2023-01-18T00:00:40.233Z,93.50
2023-01-18T00:03:11.359Z,93.50
2023-01-18T00:05:43.899Z,93.30
2023-01-18T00:08:12.641Z,93.20
2023-01-18T00:10:40.047Z,93.20
2023-01-18T00:13:06.869Z,93.30
2023-01-18T00:15:34.986Z,93.30
2023-01-18T00:18:02.976Z,93.30
2023-01-18T00:20:30.763Z,93.20
2023-01-18T00:23:00.222Z,93.10
2023-01-18T00:25:28.559Z,93.20
2023-01-18T00:27:55.761Z,93.20
2023-01-18T00:30:27.051Z,93.00
2023-01-18T00:32:58.893Z,93.10
2023-01-18T00:35:26.190Z,93.10
2023-01-18T00:37:53.881Z,93.00
2023-01-18T00:40:23.638Z,93.00
2023-01-18T00:43:08.834Z,93.10
2023-01-18T00:45:35.615Z,93.30
2023-01-18T00:48:02.709Z,93.20
2023-01-18T00:50:29.683Z,93.20
2023-01-18T00:52:58.613Z,93.10
2023-01-18T00:55:26.411Z,93.20
2023-01-18T00:57:53.350Z,93.10
2023-01-18T01:00:24.281Z,93.10
2023-01-18T01:02:51.726Z,93.10
2023-01-18T01:05:44.582Z,93.00
2023-01-18T01:08:17.424Z,93.00
2023-01-18T01:10:49.822Z,93.10
2023-01-18T01:13:38.484Z,93.20
2023-01-18T01:16:29.045Z,93.20
2023-01-18T01:19:15.452Z,93.30
2023-01-18T01:22:00.990Z,93.30
2023-01-18T01:24:46.489Z,93.30
2023-01-18T01:27:13.886Z,93.30
2023-01-18T01:29:40.943Z,93.20
2023-01-18T01:32:07.980Z,93.20
2023-01-18T01:34:34.889Z,93.20
2023-01-18T01:37:02.969Z,93.20
2023-01-18T01:39:30.481Z,93.20
2023-01-18T01:41:57.264Z,93.30
2023-01-18T01:44:24.469Z,93.40
2023-01-18T01:46:52.763Z,93.40
2023-01-18T01:49:40.072Z,93.40
2023-01-18T01:52:14.771Z,93.60
2023-01-18T01:54:53.687Z,93.60
2023-01-18T01:57:46.748Z,93.60
2023-01-18T02:00:23.099Z,93.60
2023-01-18T02:03:03.345Z,93.60
2023-01-18T02:05:33.907Z,93.60
2023-01-18T02:08:03.192Z,93.60
2023-01-18T02:10:30.796Z,93.60
2023-01-18T02:12:59.117Z,93.40
2023-01-18T02:15:36.563Z,93.40
2023-01-18T02:18:10.808Z,93.50
2023-01-18T02:21:08.586Z,93.50
2023-01-18T02:24:16.691Z,93.60
2023-01-18T02:27:05.850Z,93.60
2023-01-18T02:29:47.456Z,93.60
2023-01-18T02:32:27.535Z,93.50
2023-01-18T02:35:14.025Z,93.50
2023-01-18T02:37:40.637Z,93.60
2023-01-18T02:40:23.889Z,93.50
2023-01-18T02:43:09.198Z,93.50
2023-01-18T02:46:04.717Z,93.40
2023-01-18T02:48:41.499Z,93.40
2023-01-18T02:51:08.643Z,93.30
2023-01-18T02:53:41.590Z,93.40
2023-01-18T02:56:16.705Z,93.70
2023-01-18T02:58:57.369Z,93.60
2023-01-18T03:01:44.118Z,93.50
2023-01-18T03:04:28.953Z,93.50
2023-01-18T03:07:10.551Z,93.50
2023-01-18T03:09:38.321Z,93.60
2023-01-18T03:12:26.875Z,93.60
2023-01-18T03:15:08.528Z,93.60
2023-01-18T03:17:44.646Z,93.60
2023-01-18T03:20:18.401Z,93.50
2023-01-18T03:23:30.010Z,93.50
2023-01-18T03:25:59.224Z,93.60
2023-01-18T03:28:51.582Z,93.60
2023-01-18T03:31:58.919Z,93.60
2023-01-18T03:35:07.993Z,93.60
2023-01-18T03:37:41.064Z,93.70
2023-01-18T03:40:18.241Z,93.70
2023-01-18T03:43:03.540Z,93.70
2023-01-18T03:45:37.886Z,93.70
2023-01-18T03:48:07.119Z,93.60
2023-01-18T03:51:08.238Z,93.70
2023-01-18T03:53:40.463Z,93.60
2023-01-18T03:56:23.773Z,93.60
2023-01-18T03:58:56.321Z,93.50
2023-01-18T04:01:23.424Z,93.50
2023-01-18T04:03:50.201Z,93.60
2023-01-18T04:06:17.061Z,93.50
2023-01-18T04:08:43.743Z,93.50
2023-01-18T04:11:10.471Z,93.50
2023-01-18T04:13:37.145Z,93.50
2023-01-18T04:16:04.837Z,93.50
2023-01-18T04:18:31.688Z,93.50
2023-01-18T04:20:58.827Z,93.50
2023-01-18T04:23:25.868Z,93.50
2023-01-18T04:25:52.496Z,93.50
2023-01-18T04:28:25.241Z,93.50
2023-01-18T04:30:53.263Z,93.50
2023-01-18T04:33:20.645Z,93.60
2023-01-18T04:35:48.185Z,93.50
2023-01-18T04:38:15.578Z,93.50
2023-01-18T04:40:42.835Z,93.50
2023-01-18T04:43:09.539Z,93.50
2023-01-18T04:45:36.372Z,93.40
2023-01-18T04:48:03.246Z,93.40
2023-01-18T04:50:30.171Z,93.30
2023-01-18T04:52:58.168Z,93.30
2023-01-18T04:55:25.193Z,93.40
2023-01-18T04:57:57.732Z,93.40
2023-01-18T05:00:24.612Z,93.40
2023-01-18T05:02:51.373Z,93.40
2023-01-18T05:05:18.231Z,93.40
2023-01-18T05:07:44.909Z,93.50
2023-01-18T05:10:12.350Z,93.50
2023-01-18T05:12:39.174Z,93.40
2023-01-18T05:15:06.252Z,93.50
2023-01-18T05:17:35.150Z,93.40
2023-01-18T05:20:12.557Z,93.40
2023-01-18T05:22:39.342Z,93.50
2023-01-18T05:25:06.795Z,93.50
2023-01-18T05:27:34.075Z,93.40
2023-01-18T05:30:01.914Z,93.50
2023-01-18T05:32:28.662Z,93.40
2023-01-18T05:34:55.250Z,93.40
2023-01-18T05:37:21.900Z,93.70
2023-01-18T05:39:48.534Z,93.40
2023-01-18T05:42:15.191Z,93.40
2023-01-18T05:44:41.818Z,93.30
2023-01-18T05:47:08.716Z,93.30
2023-01-18T05:49:35.333Z,93.30
2023-01-18T05:52:04.192Z,93.40
2023-01-18T05:54:30.853Z,93.40
2023-01-18T05:56:58.303Z,93.40
2023-01-18T05:59:25.044Z,94.00
2023-01-18T06:01:51.801Z,94.50
2023-01-18T06:04:18.628Z,95.60
2023-01-18T06:06:45.286Z,96.30
2023-01-18T06:09:11.989Z,96.60
2023-01-18T06:11:38.683Z,96.90
2023-01-18T06:14:05.627Z,96.80
2023-01-18T06:16:32.417Z,97.10
2023-01-18T06:18:59.070Z,96.70
2023-01-18T06:21:26.227Z,96.40
2023-01-18T06:23:52.861Z,96.40
2023-01-18T06:26:19.594Z,96.00
2023-01-18T06:28:46.251Z,96.20
2023-01-18T06:31:12.922Z,95.60
2023-01-18T06:33:39.797Z,95.30
2023-01-18T06:36:06.923Z,95.10
2023-01-18T06:38:33.903Z,94.90
2023-01-18T06:41:00.553Z,94.70
2023-01-18T06:43:27.213Z,94.60
2023-01-18T06:45:55.503Z,94.60
2023-01-18T06:48:24.136Z,94.50
2023-01-18T06:50:54.416Z,94.40
2023-01-18T06:53:21.346Z,94.40
2023-01-18T06:55:59.034Z,94.40
2023-01-18T06:58:26.684Z,94.30
2023-01-18T07:00:58.070Z,94.20
2023-01-18T07:03:25.807Z,94.30
2023-01-18T07:05:58.704Z,94.20
2023-01-18T07:08:26.893Z,94.10
2023-01-18T07:10:54.450Z,94.10
2023-01-18T07:13:22.040Z,94.00
2023-01-18T07:16:00.768Z,94.00
2023-01-18T07:18:29.527Z,94.00
2023-01-18T07:21:03.478Z,94.00
2023-01-18T07:23:30.361Z,94.00
2023-01-18T07:26:08.595Z,94.10
2023-01-18T07:28:36.269Z,94.10
2023-01-18T07:31:04.003Z,94.10
2023-01-18T07:33:31.231Z,94.20
2023-01-18T07:35:58.448Z,94.20
2023-01-18T07:38:25.907Z,94.10
2023-01-18T07:41:02.920Z,94.10
2023-01-18T07:43:31.762Z,94.20
2023-01-18T07:45:59.421Z,94.10
2023-01-18T07:48:27.018Z,94.00
2023-01-18T07:50:58.446Z,94.10
2023-01-18T07:53:26.340Z,94.00
2023-01-18T07:55:53.278Z,94.00
2023-01-18T07:58:20.475Z,94.00
2023-01-18T08:00:47.294Z,93.90
2023-01-18T08:03:15.853Z,93.90
2023-01-18T08:05:43.997Z,93.90
2023-01-18T08:08:11.920Z,94.00
2023-01-18T08:10:39.306Z,94.00
2023-01-18T08:13:09.036Z,94.00
2023-01-18T08:15:37.165Z,94.10
2023-01-18T08:18:05.383Z,94.20
2023-01-18T08:20:32.745Z,94.20
2023-01-18T08:23:00.678Z,94.20
2023-01-18T08:25:29.785Z,94.60
2023-01-18T08:28:00.860Z,94.20
2023-01-18T08:30:33.790Z,94.30
2023-01-18T08:33:02.887Z,94.40
2023-01-18T08:35:49.677Z,94.50
2023-01-18T08:38:16.776Z,94.50
2023-01-18T08:40:43.581Z,94.50
2023-01-18T08:43:11.728Z,94.40
2023-01-18T08:45:38.416Z,94.50
2023-01-18T08:48:10.755Z,94.50
2023-01-18T08:50:39.212Z,94.50
2023-01-18T08:53:08.541Z,94.50
2023-01-18T08:55:36.560Z,94.60
2023-01-18T08:58:03.806Z,94.60
2023-01-18T09:00:30.685Z,94.60
2023-01-18T09:02:58.868Z,94.60
2023-01-18T09:05:27.097Z,94.60
2023-01-18T09:07:54.851Z,94.60
2023-01-18T09:10:22.297Z,94.60
2023-01-18T09:12:48.935Z,94.70
2023-01-18T09:15:15.709Z,94.70
2023-01-18T09:17:42.377Z,94.80
2023-01-18T09:20:11.993Z,94.90
2023-01-18T09:22:39.140Z,94.90
2023-01-18T09:25:06.274Z,95.00
2023-01-18T09:27:33.553Z,95.00
2023-01-18T09:30:00.273Z,95.10
2023-01-18T09:32:27.483Z,95.20
2023-01-18T09:34:54.857Z,95.20
2023-01-18T09:37:21.978Z,95.50
2023-01-18T09:39:52.225Z,95.50
2023-01-18T09:42:28.512Z,95.60
2023-01-18T09:44:59.781Z,95.90
2023-01-18T09:47:35.027Z,96.10
2023-01-18T09:50:13.315Z,96.40
2023-01-18T09:52:57.206Z,96.70
2023-01-18T09:55:47.662Z,96.40
2023-01-18T09:58:41.497Z,96.90
2023-01-18T10:01:16.221Z,96.80
2023-01-18T10:04:05.023Z,96.70
2023-01-18T10:06:45.846Z,96.80
2023-01-18T10:09:16.128Z,96.90
2023-01-18T10:11:47.425Z,97.00
2023-01-18T10:14:38.354Z,97.00
2023-01-18T10:17:14.516Z,97.10
2023-01-18T10:19:41.518Z,97.10
2023-01-18T10:22:38.424Z,97.10
2023-01-18T10:25:29.063Z,97.20
2023-01-18T10:27:58.874Z,97.40
2023-01-18T10:30:45.450Z,97.50
2023-01-18T10:33:25.656Z,97.50
2023-01-18T10:36:00.428Z,97.60
2023-01-18T10:38:29.349Z,97.60
2023-01-18T10:40:59.287Z,97.40
2023-01-18T10:43:28.690Z,97.50
2023-01-18T10:45:56.276Z,97.60
2023-01-18T10:48:32.337Z,97.70
2023-01-18T10:51:03.365Z,97.60
2023-01-18T10:53:36.477Z,97.60
2023-01-18T10:56:12.642Z,97.50
2023-01-18T10:58:57.671Z,97.50
2023-01-18T11:01:33.519Z,97.40
2023-01-18T11:04:22.107Z,97.40
2023-01-18T11:06:51.704Z,97.50
2023-01-18T11:09:42.709Z,97.30
2023-01-18T11:12:34.166Z,97.30
2023-01-18T11:15:22.181Z,97.20
2023-01-18T11:17:56.164Z,97.20
2023-01-18T11:20:34.180Z,97.00
2023-01-18T11:23:16.047Z,97.00
2023-01-18T11:25:51.195Z,96.80
2023-01-18T11:28:22.017Z,96.80
2023-01-18T11:30:54.109Z,96.80
2023-01-18T11:33:23.217Z,96.90
2023-01-18T11:35:54.968Z,96.90
2023-01-18T11:38:27.414Z,96.80
2023-01-18T11:41:21.031Z,96.60
2023-01-18T11:44:00.162Z,97.00
2023-01-18T11:46:38.968Z,96.60
2023-01-18T11:49:45.060Z,96.60
2023-01-18T11:52:42.303Z,96.60
2023-01-18T11:55:47.493Z,96.50
2023-01-18T11:58:25.331Z,96.50
2023-01-18T12:01:21.455Z,96.50
2023-01-18T12:04:00.434Z,96.60
2023-01-18T12:06:50.623Z,96.60
2023-01-18T12:09:22.998Z,96.70
2023-01-18T12:12:19.234Z,96.60
2023-01-18T12:15:19.283Z,96.90
2023-01-18T12:18:11.539Z,96.70
2023-01-18T12:20:45.540Z,97.00
2023-01-18T12:23:42.289Z,96.70
2023-01-18T12:26:46.599Z,96.90
2023-01-18T12:29:38.128Z,96.60
2023-01-18T12:32:23.335Z,96.50
2023-01-18T12:35:24.778Z,96.70
2023-01-18T12:38:07.115Z,96.70
2023-01-18T12:40:42.849Z,96.20
2023-01-18T12:43:35.503Z,96.30
2023-01-18T12:46:10.140Z,96.40
2023-01-18T12:48:53.001Z,96.30
2023-01-18T12:51:23.831Z,96.80
2023-01-18T12:53:53.474Z,96.40
2023-01-18T12:56:24.032Z,96.20
2023-01-18T12:58:59.466Z,96.40
2023-01-18T13:01:30.699Z,96.30
2023-01-18T13:04:06.002Z,96.40
2023-01-18T13:06:35.060Z,96.10
2023-01-18T13:09:06.533Z,96.00
2023-01-18T13:11:41.482Z,96.20
2023-01-18T13:14:14.805Z,96.10
2023-01-18T13:17:04.585Z,96.00
2023-01-18T13:20:00.151Z,95.80
2023-01-18T13:23:00.396Z,95.90
2023-01-18T13:25:32.272Z,95.80
2023-01-18T13:28:23.742Z,95.80
2023-01-18T13:31:01.853Z,95.60
2023-01-18T13:33:37.505Z,95.70
2023-01-18T13:36:14.177Z,95.60
2023-01-18T13:38:54.591Z,95.70
2023-01-18T13:41:26.899Z,95.80
2023-01-18T13:44:04.211Z,95.80
2023-01-18T13:46:35.206Z,95.70
2023-01-18T13:49:43.501Z,95.70
2023-01-18T13:52:30.381Z,95.70
2023-01-18T13:54:58.564Z,95.70
2023-01-18T13:57:25.221Z,95.70
2023-01-18T13:59:52.295Z,95.40
2023-01-18T14:02:27.732Z,95.20
2023-01-18T14:05:06.369Z,95.20
2023-01-18T14:07:44.171Z,95.10
2023-01-18T14:10:36.300Z,95.10
2023-01-18T14:13:05.971Z,94.80
2023-01-18T14:15:53.028Z,94.90
2023-01-18T14:18:26.682Z,94.80
2023-01-18T14:21:11.914Z,94.90
2023-01-18T14:23:45.918Z,94.50
2023-01-18T14:26:19.794Z,94.40
2023-01-18T14:28:51.619Z,94.90
2023-01-18T14:31:32.661Z,95.00
2023-01-18T14:34:34.995Z,94.80
2023-01-18T14:37:03.631Z,95.00
2023-01-18T14:39:32.477Z,94.90
2023-01-18T14:42:04.975Z,94.60
2023-01-18T14:44:56.846Z,95.00
2023-01-18T14:47:28.906Z,94.80
2023-01-18T14:49:55.732Z,94.80
2023-01-18T14:52:26.868Z,95.10
2023-01-18T14:54:55.545Z,94.80
2023-01-18T14:57:23.751Z,94.90
2023-01-18T14:59:53.387Z,95.10
2023-01-18T15:02:24.806Z,94.80
2023-01-18T15:04:52.414Z,94.90
2023-01-18T15:07:30.718Z,95.10
2023-01-18T15:09:58.577Z,94.70
2023-01-18T15:12:31.259Z,94.90
2023-01-18T15:15:06.503Z,94.80
2023-01-18T15:17:35.571Z,94.70
2023-01-18T15:20:20.507Z,94.50
2023-01-18T15:22:50.590Z,94.50
2023-01-18T15:25:26.698Z,94.70
2023-01-18T15:27:54.441Z,94.60
2023-01-18T15:30:23.819Z,94.50
2023-01-18T15:32:58.129Z,94.50
2023-01-18T15:35:25.805Z,94.40
2023-01-18T15:37:52.583Z,94.30
2023-01-18T15:40:19.337Z,94.30
2023-01-18T15:42:51.530Z,94.20
2023-01-18T15:45:30.542Z,94.20
2023-01-18T15:48:00.778Z,94.20
2023-01-18T15:50:44.335Z,94.20
2023-01-18T15:53:38.544Z,94.20
2023-01-18T15:56:14.728Z,94.10
2023-01-18T15:58:44.593Z,94.00
2023-01-18T16:01:15.810Z,93.90
2023-01-18T16:03:48.205Z,93.80
2023-01-18T16:06:22.717Z,94.00
2023-01-18T16:09:11.909Z,94.00
2023-01-18T16:11:46.386Z,94.10
2023-01-18T16:14:28.290Z,94.20
2023-01-18T16:16:57.154Z,94.30
2023-01-18T16:19:28.355Z,94.30
2023-01-18T16:22:01.506Z,94.30
2023-01-18T16:24:45.688Z,94.30
2023-01-18T16:27:21.725Z,94.30
2023-01-18T16:29:56.038Z,94.30
2023-01-18T16:32:27.591Z,94.30
2023-01-18T16:34:59.761Z,94.40
2023-01-18T16:37:26.927Z,94.30
2023-01-18T16:39:55.441Z,94.30
2023-01-18T16:42:29.551Z,94.30
2023-01-18T16:45:04.159Z,94.30
2023-01-18T16:47:30.799Z,94.40
2023-01-18T16:49:59.202Z,94.20
2023-01-18T16:52:26.261Z,94.20
2023-01-18T16:54:52.905Z,94.30
2023-01-18T16:57:21.694Z,94.30
2023-01-18T16:59:49.150Z,94.30
2023-01-18T17:02:16.046Z,94.30
2023-01-18T17:04:44.779Z,94.20
2023-01-18T17:07:11.500Z,94.20
2023-01-18T17:09:47.860Z,94.20
2023-01-18T17:12:15.798Z,94.10
2023-01-18T17:14:42.462Z,94.20
2023-01-18T17:17:10.404Z,94.20
2023-01-18T17:19:37.927Z,94.10
2023-01-18T17:22:04.996Z,94.10
2023-01-18T17:24:31.692Z,94.00
2023-01-18T17:26:58.391Z,94.00
2023-01-18T17:29:25.131Z,93.90
2023-01-18T17:31:52.974Z,94.00
2023-01-18T17:36:50.254Z,93.90
2023-01-18T17:39:17.136Z,93.90
2023-01-18T17:41:43.989Z,93.90
2023-01-18T17:44:10.664Z,93.90
2023-01-18T17:46:37.525Z,94.10
2023-01-18T17:49:04.621Z,93.90
2023-01-18T17:51:31.378Z,93.90
2023-01-18T17:54:00.828Z,93.80
2023-01-18T17:56:28.849Z,93.80
2023-01-18T17:58:55.601Z,93.80
2023-01-18T18:01:22.809Z,93.80
2023-01-18T18:03:52.162Z,93.70
2023-01-18T18:06:30.322Z,93.70
2023-01-18T18:08:57.822Z,93.80
2023-01-18T18:11:24.694Z,93.80
2023-01-18T18:13:51.397Z,93.70
2023-01-18T18:16:18.773Z,93.80
2023-01-18T18:18:46.111Z,93.90
2023-01-18T18:21:13.156Z,93.80
2023-01-18T18:23:39.894Z,93.80
2023-01-18T18:26:06.677Z,93.90
2023-01-18T18:28:34.089Z,93.80
2023-01-18T18:31:03.907Z,93.90
2023-01-18T18:33:30.638Z,93.90
2023-01-18T18:35:57.951Z,93.90
2023-01-18T18:38:26.572Z,93.80
2023-01-18T18:40:54.449Z,93.80
2023-01-18T18:43:21.387Z,93.70
2023-01-18T18:45:48.187Z,93.70
2023-01-18T18:48:14.919Z,93.60
2023-01-18T18:50:41.666Z,93.50
2023-01-18T18:53:08.433Z,93.50
2023-01-18T18:55:35.333Z,93.70
2023-01-18T18:58:02.986Z,93.60
2023-01-18T19:00:30.145Z,93.80
2023-01-18T19:03:06.111Z,93.80
2023-01-18T19:05:34.336Z,93.60
2023-01-18T19:08:03.342Z,93.60
2023-01-18T19:10:30.298Z,93.40
2023-01-18T19:12:57.877Z,93.50
2023-01-18T19:15:25.343Z,93.50
2023-01-18T19:17:52.949Z,93.40
2023-01-18T19:20:20.535Z,93.50
2023-01-18T19:22:48.118Z,93.50
2023-01-18T19:25:15.092Z,93.50
2023-01-18T19:27:42.186Z,93.40
2023-01-18T19:30:12.998Z,93.50
2023-01-18T19:32:39.958Z,93.40
2023-01-18T19:35:07.243Z,93.40
2023-01-18T19:37:34.006Z,93.30
2023-01-18T19:40:00.687Z,93.50
2023-01-18T19:42:27.370Z,93.50
2023-01-18T19:44:59.204Z,93.40
2023-01-18T19:47:26.174Z,93.40
2023-01-18T19:49:55.684Z,93.40
2023-01-18T19:52:22.414Z,93.20
2023-01-18T19:54:49.179Z,93.30
2023-01-18T19:57:16.219Z,93.40
2023-01-18T19:59:42.998Z,93.30
2023-01-18T20:02:10.436Z,93.30
2023-01-18T20:04:37.747Z,93.30
2023-01-18T20:07:04.820Z,93.50
2023-01-18T20:09:42.688Z,93.40
2023-01-18T20:12:12.378Z,93.30
2023-01-18T20:14:41.879Z,93.20
2023-01-18T20:17:11.055Z,93.20
2023-01-18T20:19:37.725Z,93.20
2023-01-18T20:22:04.451Z,93.20
2023-01-18T20:24:31.264Z,93.10
2023-01-18T20:27:14.993Z,93.10
2023-01-18T20:29:43.071Z,93.10
2023-01-18T20:32:16.160Z,93.00
2023-01-18T20:34:47.448Z,93.10
2023-01-18T20:37:15.234Z,93.10
2023-01-18T20:39:42.358Z,93.20
2023-01-18T20:42:09.277Z,93.10
2023-01-18T20:44:36.034Z,93.20
2023-01-18T20:47:03.126Z,93.20
2023-01-18T20:49:38.615Z,93.20
2023-01-18T20:52:07.413Z,93.20
2023-01-18T20:54:37.724Z,93.20
2023-01-18T20:57:10.032Z,93.20
2023-01-18T20:59:36.740Z,93.20
2023-01-18T21:02:03.845Z,93.20
2023-01-18T21:04:30.837Z,93.20
2023-01-18T21:06:57.714Z,93.20
2023-01-18T21:09:25.355Z,93.20
2023-01-18T21:11:52.128Z,93.30
2023-01-18T21:14:18.795Z,93.30
2023-01-18T21:16:45.721Z,93.30
2023-01-18T21:19:12.822Z,93.40
2023-01-18T21:21:46.236Z,93.40
2023-01-18T21:24:13.226Z,93.50
2023-01-18T21:26:40.050Z,93.40
2023-01-18T21:29:06.791Z,93.40
2023-01-18T21:31:33.587Z,93.50
2023-01-18T21:34:00.409Z,93.40
2023-01-18T21:36:27.071Z,93.50
2023-01-18T21:38:53.824Z,93.50
2023-01-18T21:41:39.288Z,93.50
2023-01-18T21:44:24.619Z,93.60
2023-01-18T21:46:52.261Z,93.70
2023-01-18T21:52:44.009Z,94.10
2023-01-18T21:55:10.802Z,93.90
2023-01-18T21:57:38.681Z,93.90
2023-01-18T22:00:06.558Z,94.00
2023-01-18T22:02:34.256Z,94.20
2023-01-18T22:05:01.534Z,94.00
2023-01-18T22:07:30.117Z,94.10
2023-01-18T22:10:05.973Z,94.00
2023-01-18T22:12:35.294Z,94.10
2023-01-18T22:15:03.155Z,94.10
2023-01-18T22:17:30.417Z,94.10
2023-01-18T22:19:57.547Z,94.20
2023-01-18T22:22:24.266Z,94.10
2023-01-18T22:24:50.906Z,94.20
2023-01-18T22:27:17.625Z,94.20
2023-01-18T22:29:44.403Z,94.30
2023-01-18T22:32:11.079Z,94.40
2023-01-18T22:34:37.747Z,94.40
2023-01-18T22:37:05.608Z,94.40
2023-01-18T22:39:32.436Z,94.30
2023-01-18T22:41:59.116Z,94.30
2023-01-18T22:44:25.798Z,94.50
2023-01-18T22:46:52.503Z,94.60
2023-01-18T22:49:19.355Z,94.40
2023-01-18T22:51:46.164Z,94.60
2023-01-18T22:54:13.346Z,94.80
2023-01-18T22:56:40.077Z,94.80
2023-01-18T22:59:08.047Z,94.90
2023-01-18T23:01:35.179Z,95.00
2023-01-18T23:04:03.928Z,95.00
2023-01-18T23:06:45.488Z,95.10
2023-01-18T23:09:14.321Z,95.00
2023-01-18T23:11:41.311Z,95.00
2023-01-18T23:14:26.545Z,95.20
2023-01-18T23:17:11.888Z,94.90
2023-01-18T23:19:38.821Z,95.10
2023-01-18T23:22:08.273Z,95.30
2023-01-18T23:24:36.827Z,95.20
2023-01-18T23:27:10.035Z,95.10
2023-01-18T23:29:37.389Z,95.10
2023-01-18T23:32:04.363Z,95.20
2023-01-18T23:34:31.055Z,95.10
2023-01-18T23:36:57.745Z,95.00
2023-01-18T23:39:43.004Z,95.20
2023-01-18T23:42:28.221Z,95.50
2023-01-18T23:45:13.747Z,95.30
2023-01-18T23:47:59.441Z,95.30
2023-01-18T23:50:44.988Z,95.60
2023-01-18T23:53:31.604Z,95.30
2023-01-18T23:55:58.913Z,95.30
2023-01-18T23:58:25.718Z,95.30
